sensor_id;sensor_type;location;lat;lon;timestamp;P1;durP1;ratioP1;P2;durP2;ratioP2
39872;SDS011;63160;48.854;9.292;2022-10-19T00:01:37;13.23;;;8.27;;
39872;SDS011;63160;48.854;9.292;2022-10-19T00:04:04;10.25;;;7.82;;
39872;SDS011;63160;48.854;9.292;2022-10-19T00:06:34;12.35;;;7.28;;
39872;SDS011;63160;48.854;9.292;2022-10-19T00:11:34;12.48;;;9.13;;
39872;SDS011;63160;48.854;9.292;2022-10-19T00:14:02;10.93;;;8.68;;
39872;SDS011;63160;48.854;9.292;2022-10-19T00:16:31;14.20;;;9.18;;
39872;SDS011;63160;48.854;9.292;2022-10-19T00:19:00;12.15;;;8.52;;
39872;SDS011;63160;48.854;9.292;2022-10-19T00:21:29;15.30;;;9.40;;
39872;SDS011;63160;48.854;9.292;2022-10-19T00:23:56;14.82;;;10.15;;
39872;SDS011;63160;48.854;9.292;2022-10-19T00:26:23;15.77;;;10.20;;
39872;SDS011;63160;48.854;9.292;2022-10-19T00:28:54;14.48;;;10.77;;
39872;SDS011;63160;48.854;9.292;2022-10-19T00:31:22;15.93;;;11.55;;
39872;SDS011;63160;48.854;9.292;2022-10-19T00:33:49;17.80;;;12.23;;
39872;SDS011;63160;48.854;9.292;2022-10-19T00:36:20;17.00;;;11.63;;
39872;SDS011;63160;48.854;9.292;2022-10-19T00:39:10;15.27;;;11.18;;
39872;SDS011;63160;48.854;9.292;2022-10-19T00:41:38;19.52;;;11.65;;
39872;SDS011;63160;48.854;9.292;2022-10-19T00:44:06;16.27;;;11.90;;
39872;SDS011;63160;48.854;9.292;2022-10-19T00:47:00;16.00;;;11.30;;
39872;SDS011;63160;48.854;9.292;2022-10-19T00:49:34;14.77;;;12.05;;
39872;SDS011;63160;48.854;9.292;2022-10-19T00:52:10;14.60;;;11.35;;
39872;SDS011;63160;48.854;9.292;2022-10-19T00:54:40;16.30;;;10.70;;
39872;SDS011;63160;48.854;9.292;2022-10-19T00:57:07;12.98;;;10.13;;
39872;SDS011;63160;48.854;9.292;2022-10-19T00:59:35;12.45;;;9.48;;
39872;SDS011;63160;48.854;9.292;2022-10-19T01:02:02;15.98;;;9.85;;
39872;SDS011;63160;48.854;9.292;2022-10-19T01:04:31;14.63;;;8.70;;
39872;SDS011;63160;48.854;9.292;2022-10-19T01:07:01;13.95;;;9.32;;
39872;SDS011;63160;48.854;9.292;2022-10-19T01:09:29;13.82;;;9.93;;
39872;SDS011;63160;48.854;9.292;2022-10-19T01:11:57;15.90;;;9.23;;
39872;SDS011;63160;48.854;9.292;2022-10-19T01:14:37;19.45;;;10.85;;
39872;SDS011;63160;48.854;9.292;2022-10-19T01:23:15;21.67;;;9.23;;
39872;SDS011;63160;48.854;9.292;2022-10-19T01:25:59;23.13;;;10.10;;
39872;SDS011;63160;48.854;9.292;2022-10-19T01:31:38;14.85;;;8.73;;
39872;SDS011;63160;48.854;9.292;2022-10-19T01:34:14;12.60;;;8.75;;
39872;SDS011;63160;48.854;9.292;2022-10-19T01:36:54;13.68;;;8.15;;
39872;SDS011;63160;48.854;9.292;2022-10-19T01:42:02;10.30;;;8.60;;
39872;SDS011;63160;48.854;9.292;2022-10-19T01:47:16;15.80;;;9.95;;
39872;SDS011;63160;48.854;9.292;2022-10-19T01:49:59;14.77;;;9.50;;
39872;SDS011;63160;48.854;9.292;2022-10-19T01:52:28;16.48;;;9.93;;
39872;SDS011;63160;48.854;9.292;2022-10-19T01:54:57;13.40;;;10.00;;
39872;SDS011;63160;48.854;9.292;2022-10-19T01:57:32;19.75;;;10.75;;
39872;SDS011;63160;48.854;9.292;2022-10-19T02:00:00;25.48;;;10.93;;
39872;SDS011;63160;48.854;9.292;2022-10-19T02:02:42;12.85;;;10.02;;
39872;SDS011;63160;48.854;9.292;2022-10-19T02:05:12;18.83;;;11.55;;
39872;SDS011;63160;48.854;9.292;2022-10-19T02:07:40;13.98;;;11.18;;
39872;SDS011;63160;48.854;9.292;2022-10-19T02:10:10;16.27;;;10.10;;
39872;SDS011;63160;48.854;9.292;2022-10-19T02:12:37;17.23;;;11.93;;
39872;SDS011;63160;48.854;9.292;2022-10-19T02:15:06;15.35;;;11.30;;
39872;SDS011;63160;48.854;9.292;2022-10-19T02:17:41;15.82;;;11.18;;
39872;SDS011;63160;48.854;9.292;2022-10-19T02:20:11;20.55;;;11.38;;
39872;SDS011;63160;48.854;9.292;2022-10-19T02:22:38;18.42;;;10.57;;
39872;SDS011;63160;48.854;9.292;2022-10-19T02:25:05;12.27;;;10.27;;
39872;SDS011;63160;48.854;9.292;2022-10-19T02:27:33;15.38;;;11.15;;
39872;SDS011;63160;48.854;9.292;2022-10-19T02:30:00;14.00;;;11.10;;
39872;SDS011;63160;48.854;9.292;2022-10-19T02:32:27;13.45;;;10.98;;
39872;SDS011;63160;48.854;9.292;2022-10-19T02:34:53;13.55;;;10.63;;
39872;SDS011;63160;48.854;9.292;2022-10-19T02:37:20;14.23;;;10.60;;
39872;SDS011;63160;48.854;9.292;2022-10-19T02:39:50;12.75;;;10.20;;
39872;SDS011;63160;48.854;9.292;2022-10-19T02:44:52;10.05;;;9.00;;
39872;SDS011;63160;48.854;9.292;2022-10-19T02:47:29;12.32;;;9.05;;
39872;SDS011;63160;48.854;9.292;2022-10-19T02:49:59;12.68;;;9.88;;
39872;SDS011;63160;48.854;9.292;2022-10-19T02:52:26;11.02;;;9.52;;
39872;SDS011;63160;48.854;9.292;2022-10-19T02:54:53;10.98;;;9.73;;
39872;SDS011;63160;48.854;9.292;2022-10-19T02:57:21;16.95;;;9.68;;
39872;SDS011;63160;48.854;9.292;2022-10-19T02:59:49;16.63;;;10.20;;
39872;SDS011;63160;48.854;9.292;2022-10-19T03:02:17;10.85;;;8.98;;
39872;SDS011;63160;48.854;9.292;2022-10-19T03:04:45;13.80;;;9.75;;
39872;SDS011;63160;48.854;9.292;2022-10-19T03:07:32;12.48;;;9.90;;
39872;SDS011;63160;48.854;9.292;2022-10-19T03:10:00;12.07;;;10.30;;
39872;SDS011;63160;48.854;9.292;2022-10-19T03:12:27;10.60;;;9.35;;
39872;SDS011;63160;48.854;9.292;2022-10-19T03:14:53;15.70;;;10.25;;
39872;SDS011;63160;48.854;9.292;2022-10-19T03:17:20;20.65;;;10.55;;
39872;SDS011;63160;48.854;9.292;2022-10-19T03:19:47;20.42;;;11.60;;
39872;SDS011;63160;48.854;9.292;2022-10-19T03:22:14;21.58;;;11.40;;
39872;SDS011;63160;48.854;9.292;2022-10-19T03:24:41;15.88;;;10.65;;
39872;SDS011;63160;48.854;9.292;2022-10-19T03:27:07;18.38;;;11.88;;
39872;SDS011;63160;48.854;9.292;2022-10-19T03:29:34;16.08;;;10.73;;
39872;SDS011;63160;48.854;9.292;2022-10-19T03:32:01;18.95;;;12.30;;
39872;SDS011;63160;48.854;9.292;2022-10-19T03:34:28;18.58;;;11.57;;
39872;SDS011;63160;48.854;9.292;2022-10-19T03:36:54;18.17;;;11.80;;
39872;SDS011;63160;48.854;9.292;2022-10-19T03:39:22;14.55;;;10.65;;
39872;SDS011;63160;48.854;9.292;2022-10-19T03:41:48;22.77;;;12.50;;
39872;SDS011;63160;48.854;9.292;2022-10-19T03:44:15;17.55;;;12.57;;
39872;SDS011;63160;48.854;9.292;2022-10-19T03:46:42;22.70;;;13.32;;
39872;SDS011;63160;48.854;9.292;2022-10-19T03:49:14;19.42;;;13.43;;
39872;SDS011;63160;48.854;9.292;2022-10-19T03:51:40;25.38;;;13.25;;
39872;SDS011;63160;48.854;9.292;2022-10-19T03:54:10;24.70;;;14.55;;
39872;SDS011;63160;48.854;9.292;2022-10-19T03:56:38;21.55;;;12.82;;
39872;SDS011;63160;48.854;9.292;2022-10-19T03:59:05;23.70;;;13.85;;
39872;SDS011;63160;48.854;9.292;2022-10-19T04:01:33;24.77;;;14.35;;
39872;SDS011;63160;48.854;9.292;2022-10-19T04:04:05;18.73;;;12.95;;
39872;SDS011;63160;48.854;9.292;2022-10-19T04:06:35;21.42;;;12.20;;
39872;SDS011;63160;48.854;9.292;2022-10-19T04:09:04;20.75;;;13.02;;
39872;SDS011;63160;48.854;9.292;2022-10-19T04:11:32;14.07;;;10.52;;
39872;SDS011;63160;48.854;9.292;2022-10-19T04:13:59;16.90;;;11.23;;
39872;SDS011;63160;48.854;9.292;2022-10-19T04:16:28;13.55;;;10.23;;
39872;SDS011;63160;48.854;9.292;2022-10-19T04:18:56;18.23;;;11.75;;
39872;SDS011;63160;48.854;9.292;2022-10-19T04:21:30;15.32;;;11.27;;
39872;SDS011;63160;48.854;9.292;2022-10-19T04:24:02;16.20;;;10.75;;
39872;SDS011;63160;48.854;9.292;2022-10-19T04:26:29;13.52;;;10.32;;
39872;SDS011;63160;48.854;9.292;2022-10-19T04:28:56;11.20;;;8.95;;
39872;SDS011;63160;48.854;9.292;2022-10-19T04:31:24;12.48;;;9.45;;
39872;SDS011;63160;48.854;9.292;2022-10-19T04:33:51;12.25;;;9.13;;
39872;SDS011;63160;48.854;9.292;2022-10-19T04:36:18;12.93;;;10.80;;
39872;SDS011;63160;48.854;9.292;2022-10-19T04:38:45;13.55;;;10.68;;
39872;SDS011;63160;48.854;9.292;2022-10-19T04:41:13;14.23;;;10.30;;
39872;SDS011;63160;48.854;9.292;2022-10-19T04:43:41;11.60;;;9.85;;
39872;SDS011;63160;48.854;9.292;2022-10-19T04:46:11;12.23;;;10.02;;
39872;SDS011;63160;48.854;9.292;2022-10-19T04:48:39;20.52;;;11.45;;
39872;SDS011;63160;48.854;9.292;2022-10-19T04:51:07;13.63;;;10.75;;
39872;SDS011;63160;48.854;9.292;2022-10-19T04:53:35;18.25;;;12.02;;
39872;SDS011;63160;48.854;9.292;2022-10-19T04:56:03;14.57;;;11.95;;
39872;SDS011;63160;48.854;9.292;2022-10-19T04:58:31;18.83;;;12.13;;
39872;SDS011;63160;48.854;9.292;2022-10-19T05:00:58;13.60;;;10.73;;
39872;SDS011;63160;48.854;9.292;2022-10-19T05:03:25;14.35;;;10.52;;
39872;SDS011;63160;48.854;9.292;2022-10-19T05:05:52;14.68;;;12.02;;
39872;SDS011;63160;48.854;9.292;2022-10-19T05:08:19;16.77;;;11.73;;
39872;SDS011;63160;48.854;9.292;2022-10-19T05:10:45;16.83;;;12.00;;
39872;SDS011;63160;48.854;9.292;2022-10-19T05:13:13;15.40;;;11.63;;
39872;SDS011;63160;48.854;9.292;2022-10-19T05:15:39;14.38;;;10.82;;
39872;SDS011;63160;48.854;9.292;2022-10-19T05:18:06;14.88;;;11.52;;
39872;SDS011;63160;48.854;9.292;2022-10-19T05:20:33;13.73;;;10.57;;
39872;SDS011;63160;48.854;9.292;2022-10-19T05:22:59;12.65;;;10.65;;
39872;SDS011;63160;48.854;9.292;2022-10-19T05:25:32;18.35;;;10.82;;
39872;SDS011;63160;48.854;9.292;2022-10-19T05:27:59;15.60;;;10.85;;
39872;SDS011;63160;48.854;9.292;2022-10-19T05:30:26;12.05;;;10.50;;
39872;SDS011;63160;48.854;9.292;2022-10-19T05:32:52;10.70;;;9.15;;
39872;SDS011;63160;48.854;9.292;2022-10-19T05:35:19;9.85;;;8.63;;
39872;SDS011;63160;48.854;9.292;2022-10-19T05:37:50;9.75;;;7.57;;
39872;SDS011;63160;48.854;9.292;2022-10-19T05:40:19;8.37;;;7.43;;
39872;SDS011;63160;48.854;9.292;2022-10-19T05:42:46;15.85;;;8.20;;
39872;SDS011;63160;48.854;9.292;2022-10-19T05:45:13;14.15;;;8.30;;
39872;SDS011;63160;48.854;9.292;2022-10-19T05:47:39;14.75;;;7.32;;
39872;SDS011;63160;48.854;9.292;2022-10-19T05:50:06;7.97;;;7.18;;
39872;SDS011;63160;48.854;9.292;2022-10-19T05:52:33;11.10;;;8.20;;
39872;SDS011;63160;48.854;9.292;2022-10-19T05:55:00;10.73;;;8.63;;
39872;SDS011;63160;48.854;9.292;2022-10-19T05:57:26;20.50;;;8.30;;
39872;SDS011;63160;48.854;9.292;2022-10-19T05:59:53;11.18;;;7.82;;
39872;SDS011;63160;48.854;9.292;2022-10-19T06:02:22;12.27;;;10.25;;
39872;SDS011;63160;48.854;9.292;2022-10-19T06:04:49;11.70;;;9.73;;
39872;SDS011;63160;48.854;9.292;2022-10-19T06:07:15;20.15;;;9.25;;
39872;SDS011;63160;48.854;9.292;2022-10-19T06:09:42;17.75;;;8.65;;
39872;SDS011;63160;48.854;9.292;2022-10-19T06:12:09;13.30;;;9.02;;
39872;SDS011;63160;48.854;9.292;2022-10-19T06:14:35;11.93;;;8.55;;
39872;SDS011;63160;48.854;9.292;2022-10-19T06:17:02;15.70;;;9.73;;
39872;SDS011;63160;48.854;9.292;2022-10-19T06:19:29;11.77;;;9.18;;
39872;SDS011;63160;48.854;9.292;2022-10-19T06:21:56;10.52;;;8.75;;
39872;SDS011;63160;48.854;9.292;2022-10-19T06:24:22;11.65;;;9.95;;
39872;SDS011;63160;48.854;9.292;2022-10-19T06:26:49;11.18;;;9.65;;
39872;SDS011;63160;48.854;9.292;2022-10-19T06:29:16;16.25;;;10.32;;
39872;SDS011;63160;48.854;9.292;2022-10-19T06:31:42;17.52;;;11.30;;
39872;SDS011;63160;48.854;9.292;2022-10-19T06:34:10;12.10;;;10.18;;
39872;SDS011;63160;48.854;9.292;2022-10-19T06:36:37;13.68;;;9.43;;
39872;SDS011;63160;48.854;9.292;2022-10-19T06:39:04;13.23;;;10.23;;
39872;SDS011;63160;48.854;9.292;2022-10-19T06:41:30;13.13;;;10.18;;
39872;SDS011;63160;48.854;9.292;2022-10-19T06:44:14;13.15;;;10.45;;
39872;SDS011;63160;48.854;9.292;2022-10-19T06:46:41;14.00;;;9.98;;
39872;SDS011;63160;48.854;9.292;2022-10-19T06:49:10;13.40;;;11.25;;
39872;SDS011;63160;48.854;9.292;2022-10-19T06:51:37;12.63;;;10.35;;
39872;SDS011;63160;48.854;9.292;2022-10-19T06:54:06;12.15;;;10.23;;
39872;SDS011;63160;48.854;9.292;2022-10-19T06:56:32;17.02;;;11.05;;
39872;SDS011;63160;48.854;9.292;2022-10-19T06:58:59;15.23;;;11.38;;
39872;SDS011;63160;48.854;9.292;2022-10-19T07:01:26;19.15;;;11.93;;
39872;SDS011;63160;48.854;9.292;2022-10-19T07:03:53;14.63;;;11.68;;
39872;SDS011;63160;48.854;9.292;2022-10-19T07:06:20;15.90;;;11.82;;
39872;SDS011;63160;48.854;9.292;2022-10-19T07:08:47;18.58;;;13.13;;
39872;SDS011;63160;48.854;9.292;2022-10-19T07:11:15;22.25;;;12.13;;
39872;SDS011;63160;48.854;9.292;2022-10-19T07:13:43;15.90;;;12.60;;
39872;SDS011;63160;48.854;9.292;2022-10-19T07:16:11;17.73;;;12.52;;
39872;SDS011;63160;48.854;9.292;2022-10-19T07:18:46;18.00;;;12.82;;
39872;SDS011;63160;48.854;9.292;2022-10-19T07:21:14;16.45;;;12.18;;
39872;SDS011;63160;48.854;9.292;2022-10-19T07:23:42;18.45;;;13.70;;
39872;SDS011;63160;48.854;9.292;2022-10-19T07:26:10;19.50;;;13.27;;
39872;SDS011;63160;48.854;9.292;2022-10-19T07:28:42;21.07;;;13.03;;
39872;SDS011;63160;48.854;9.292;2022-10-19T07:31:11;18.33;;;12.77;;
39872;SDS011;63160;48.854;9.292;2022-10-19T07:33:38;13.80;;;11.75;;
39872;SDS011;63160;48.854;9.292;2022-10-19T07:36:06;17.52;;;12.10;;
39872;SDS011;63160;48.854;9.292;2022-10-19T07:38:33;16.35;;;12.52;;
39872;SDS011;63160;48.854;9.292;2022-10-19T07:41:01;16.40;;;12.32;;
39872;SDS011;63160;48.854;9.292;2022-10-19T07:43:33;14.02;;;11.52;;
39872;SDS011;63160;48.854;9.292;2022-10-19T07:46:01;22.52;;;11.98;;
39872;SDS011;63160;48.854;9.292;2022-10-19T07:48:29;15.23;;;12.68;;
39872;SDS011;63160;48.854;9.292;2022-10-19T07:50:56;14.80;;;12.38;;
39872;SDS011;63160;48.854;9.292;2022-10-19T07:53:23;22.08;;;12.13;;
39872;SDS011;63160;48.854;9.292;2022-10-19T07:55:49;14.82;;;11.38;;
39872;SDS011;63160;48.854;9.292;2022-10-19T07:58:16;14.68;;;10.43;;
39872;SDS011;63160;48.854;9.292;2022-10-19T08:00:43;19.02;;;10.40;;
39872;SDS011;63160;48.854;9.292;2022-10-19T08:03:10;13.90;;;11.15;;
39872;SDS011;63160;48.854;9.292;2022-10-19T08:06:00;14.73;;;10.60;;
39872;SDS011;63160;48.854;9.292;2022-10-19T08:08:27;14.30;;;10.38;;
39872;SDS011;63160;48.854;9.292;2022-10-19T08:10:54;12.98;;;10.05;;
39872;SDS011;63160;48.854;9.292;2022-10-19T08:13:21;12.20;;;9.10;;
39872;SDS011;63160;48.854;9.292;2022-10-19T08:15:48;10.77;;;9.57;;
39872;SDS011;63160;48.854;9.292;2022-10-19T08:18:15;13.07;;;8.88;;
39872;SDS011;63160;48.854;9.292;2022-10-19T08:20:43;11.68;;;9.32;;
39872;SDS011;63160;48.854;9.292;2022-10-19T08:23:10;11.60;;;9.25;;
39872;SDS011;63160;48.854;9.292;2022-10-19T08:25:37;10.77;;;9.23;;
39872;SDS011;63160;48.854;9.292;2022-10-19T08:28:03;13.70;;;9.40;;
39872;SDS011;63160;48.854;9.292;2022-10-19T08:30:30;16.50;;;9.60;;
39872;SDS011;63160;48.854;9.292;2022-10-19T08:32:57;14.32;;;9.30;;
39872;SDS011;63160;48.854;9.292;2022-10-19T08:35:24;12.13;;;8.75;;
39872;SDS011;63160;48.854;9.292;2022-10-19T08:37:50;13.88;;;8.77;;
39872;SDS011;63160;48.854;9.292;2022-10-19T08:40:20;11.13;;;8.50;;
39872;SDS011;63160;48.854;9.292;2022-10-19T08:42:54;11.18;;;8.35;;
39872;SDS011;63160;48.854;9.292;2022-10-19T08:45:29;12.30;;;8.43;;
39872;SDS011;63160;48.854;9.292;2022-10-19T08:50:55;8.05;;;6.97;;
39872;SDS011;63160;48.854;9.292;2022-10-19T08:56:07;10.10;;;6.90;;
39872;SDS011;63160;48.854;9.292;2022-10-19T09:07:00;9.93;;;6.05;;
39872;SDS011;63160;48.854;9.292;2022-10-19T09:09:43;8.00;;;6.10;;
39872;SDS011;63160;48.854;9.292;2022-10-19T09:12:34;8.73;;;5.85;;
39872;SDS011;63160;48.854;9.292;2022-10-19T09:15:09;6.95;;;4.40;;
39872;SDS011;63160;48.854;9.292;2022-10-19T09:17:38;7.45;;;4.38;;
39872;SDS011;63160;48.854;9.292;2022-10-19T09:20:12;5.63;;;3.83;;
39872;SDS011;63160;48.854;9.292;2022-10-19T09:22:50;6.55;;;3.75;;
39872;SDS011;63160;48.854;9.292;2022-10-19T09:25:24;5.40;;;3.47;;
39872;SDS011;63160;48.854;9.292;2022-10-19T09:27:59;6.10;;;3.90;;
39872;SDS011;63160;48.854;9.292;2022-10-19T09:30:36;4.82;;;3.30;;
39872;SDS011;63160;48.854;9.292;2022-10-19T09:33:03;4.85;;;3.45;;
39872;SDS011;63160;48.854;9.292;2022-10-19T09:35:32;4.35;;;3.00;;
39872;SDS011;63160;48.854;9.292;2022-10-19T09:38:03;7.05;;;3.20;;
39872;SDS011;63160;48.854;9.292;2022-10-19T09:40:30;4.43;;;3.38;;
39872;SDS011;63160;48.854;9.292;2022-10-19T09:42:57;5.15;;;3.47;;
39872;SDS011;63160;48.854;9.292;2022-10-19T09:45:28;4.38;;;3.33;;
39872;SDS011;63160;48.854;9.292;2022-10-19T09:48:16;5.38;;;3.55;;
39872;SDS011;63160;48.854;9.292;2022-10-19T09:50:57;8.65;;;2.70;;
39872;SDS011;63160;48.854;9.292;2022-10-19T09:53:25;7.28;;;3.28;;
39872;SDS011;63160;48.854;9.292;2022-10-19T09:56:38;3.42;;;2.60;;
39872;SDS011;63160;48.854;9.292;2022-10-19T09:58:48;4.93;;;3.47;;
39872;SDS011;63160;48.854;9.292;2022-10-19T10:04:17;4.30;;;2.75;;
39872;SDS011;63160;48.854;9.292;2022-10-19T10:06:46;5.28;;;3.22;;
39872;SDS011;63160;48.854;9.292;2022-10-19T10:09:33;3.03;;;2.42;;
39872;SDS011;63160;48.854;9.292;2022-10-19T10:12:03;4.68;;;2.92;;
39872;SDS011;63160;48.854;9.292;2022-10-19T10:14:31;3.22;;;2.92;;
39872;SDS011;63160;48.854;9.292;2022-10-19T10:17:03;3.53;;;3.00;;
39872;SDS011;63160;48.854;9.292;2022-10-19T10:19:49;3.80;;;2.55;;
39872;SDS011;63160;48.854;9.292;2022-10-19T10:22:26;6.70;;;3.40;;
39872;SDS011;63160;48.854;9.292;2022-10-19T10:25:15;7.57;;;3.55;;
39872;SDS011;63160;48.854;9.292;2022-10-19T10:27:52;3.13;;;2.50;;
39872;SDS011;63160;48.854;9.292;2022-10-19T10:30:37;3.72;;;2.83;;
39872;SDS011;63160;48.854;9.292;2022-10-19T10:33:04;3.63;;;2.80;;
39872;SDS011;63160;48.854;9.292;2022-10-19T10:35:51;5.85;;;3.17;;
39872;SDS011;63160;48.854;9.292;2022-10-19T10:38:22;4.05;;;2.47;;
39872;SDS011;63160;48.854;9.292;2022-10-19T10:40:53;3.08;;;2.53;;
39872;SDS011;63160;48.854;9.292;2022-10-19T10:43:34;2.63;;;2.42;;
39872;SDS011;63160;48.854;9.292;2022-10-19T10:46:06;5.80;;;2.72;;
39872;SDS011;63160;48.854;9.292;2022-10-19T10:51:22;2.78;;;2.42;;
39872;SDS011;63160;48.854;9.292;2022-10-19T10:53:50;4.18;;;3.45;;
39872;SDS011;63160;48.854;9.292;2022-10-19T10:56:22;5.45;;;4.00;;
39872;SDS011;63160;48.854;9.292;2022-10-19T10:58:51;5.93;;;3.60;;
39872;SDS011;63160;48.854;9.292;2022-10-19T11:01:22;7.93;;;3.65;;
39872;SDS011;63160;48.854;9.292;2022-10-19T11:03:51;4.68;;;3.47;;
39872;SDS011;63160;48.854;9.292;2022-10-19T11:06:21;5.07;;;3.63;;
39872;SDS011;63160;48.854;9.292;2022-10-19T11:09:07;5.35;;;3.40;;
39872;SDS011;63160;48.854;9.292;2022-10-19T11:11:42;4.25;;;3.75;;
39872;SDS011;63160;48.854;9.292;2022-10-19T11:14:28;4.00;;;3.60;;
39872;SDS011;63160;48.854;9.292;2022-10-19T11:17:04;3.47;;;3.13;;
39872;SDS011;63160;48.854;9.292;2022-10-19T11:19:41;4.45;;;4.03;;
39872;SDS011;63160;48.854;9.292;2022-10-19T11:22:15;4.93;;;3.80;;
39872;SDS011;63160;48.854;9.292;2022-10-19T11:30:32;5.95;;;2.85;;
39872;SDS011;63160;48.854;9.292;2022-10-19T11:35:50;7.03;;;3.35;;
39872;SDS011;63160;48.854;9.292;2022-10-19T11:41:07;6.45;;;2.92;;
39872;SDS011;63160;48.854;9.292;2022-10-19T11:46:41;4.15;;;2.90;;
39872;SDS011;63160;48.854;9.292;2022-10-19T11:49:33;4.38;;;2.40;;
39872;SDS011;63160;48.854;9.292;2022-10-19T11:52:22;4.25;;;2.85;;
39872;SDS011;63160;48.854;9.292;2022-10-19T12:03:48;3.70;;;3.10;;
39872;SDS011;63160;48.854;9.292;2022-10-19T12:14:42;5.05;;;3.00;;
39872;SDS011;63160;48.854;9.292;2022-10-19T12:17:28;5.80;;;2.90;;
39872;SDS011;63160;48.854;9.292;2022-10-19T12:20:07;3.25;;;2.90;;
39872;SDS011;63160;48.854;9.292;2022-10-19T12:22:45;3.92;;;3.33;;
39872;SDS011;63160;48.854;9.292;2022-10-19T12:25:12;5.47;;;3.58;;
39872;SDS011;63160;48.854;9.292;2022-10-19T12:27:40;5.40;;;3.50;;
39872;SDS011;63160;48.854;9.292;2022-10-19T12:30:28;5.10;;;3.35;;
39872;SDS011;63160;48.854;9.292;2022-10-19T12:32:57;6.93;;;4.40;;
39872;SDS011;63160;48.854;9.292;2022-10-19T12:40:53;4.97;;;3.75;;
39872;SDS011;63160;48.854;9.292;2022-10-19T12:43:34;7.38;;;3.72;;
39872;SDS011;63160;48.854;9.292;2022-10-19T12:49:33;7.28;;;4.15;;
39872;SDS011;63160;48.854;9.292;2022-10-19T12:52:01;3.80;;;3.40;;
39872;SDS011;63160;48.854;9.292;2022-10-19T12:54:31;4.13;;;3.65;;
39872;SDS011;63160;48.854;9.292;2022-10-19T12:57:00;4.28;;;3.83;;
39872;SDS011;63160;48.854;9.292;2022-10-19T12:59:33;3.97;;;3.30;;
39872;SDS011;63160;48.854;9.292;2022-10-19T13:02:01;5.15;;;4.10;;
39872;SDS011;63160;48.854;9.292;2022-10-19T13:13:57;6.30;;;3.22;;
39872;SDS011;63160;48.854;9.292;2022-10-19T13:40:37;3.70;;;2.90;;
39872;SDS011;63160;48.854;9.292;2022-10-19T13:43:15;3.85;;;2.97;;
39872;SDS011;63160;48.854;9.292;2022-10-19T13:45:54;3.95;;;2.85;;
39872;SDS011;63160;48.854;9.292;2022-10-19T13:51:40;4.63;;;2.92;;
39872;SDS011;63160;48.854;9.292;2022-10-19T13:54:12;3.28;;;2.90;;
39872;SDS011;63160;48.854;9.292;2022-10-19T13:56:45;5.80;;;2.72;;
39872;SDS011;63160;48.854;9.292;2022-10-19T14:00:08;2.20;;;2.05;;
39872;SDS011;63160;48.854;9.292;2022-10-19T14:10:17;6.30;;;2.53;;
39872;SDS011;63160;48.854;9.292;2022-10-19T14:12:46;4.25;;;2.97;;
39872;SDS011;63160;48.854;9.292;2022-10-19T14:17:43;4.75;;;2.45;;
39872;SDS011;63160;48.854;9.292;2022-10-19T14:22:50;3.20;;;2.78;;
39872;SDS011;63160;48.854;9.292;2022-10-19T14:25:18;6.07;;;3.25;;
39872;SDS011;63160;48.854;9.292;2022-10-19T14:27:47;4.15;;;3.38;;
39872;SDS011;63160;48.854;9.292;2022-10-19T14:30:29;2.90;;;2.60;;
39872;SDS011;63160;48.854;9.292;2022-10-19T14:33:01;6.03;;;3.20;;
39872;SDS011;63160;48.854;9.292;2022-10-19T14:35:34;3.47;;;2.75;;
39872;SDS011;63160;48.854;9.292;2022-10-19T14:38:04;4.70;;;3.08;;
39872;SDS011;63160;48.854;9.292;2022-10-19T14:40:32;4.30;;;3.70;;
39872;SDS011;63160;48.854;9.292;2022-10-19T14:43:00;4.45;;;3.13;;
39872;SDS011;63160;48.854;9.292;2022-10-19T14:45:31;4.22;;;3.28;;
39872;SDS011;63160;48.854;9.292;2022-10-19T14:48:01;6.50;;;3.30;;
39872;SDS011;63160;48.854;9.292;2022-10-19T14:50:34;5.75;;;3.13;;
39872;SDS011;63160;48.854;9.292;2022-10-19T14:53:18;3.55;;;3.25;;
39872;SDS011;63160;48.854;9.292;2022-10-19T14:55:45;5.18;;;3.10;;
39872;SDS011;63160;48.854;9.292;2022-10-19T14:58:14;3.38;;;2.95;;
39872;SDS011;63160;48.854;9.292;2022-10-19T15:00:44;3.75;;;3.35;;
39872;SDS011;63160;48.854;9.292;2022-10-19T15:03:15;4.03;;;3.45;;
39872;SDS011;63160;48.854;9.292;2022-10-19T15:05:46;4.40;;;3.42;;
39872;SDS011;63160;48.854;9.292;2022-10-19T15:08:29;4.45;;;2.72;;
39872;SDS011;63160;48.854;9.292;2022-10-19T15:10:56;4.63;;;3.23;;
39872;SDS011;63160;48.854;9.292;2022-10-19T15:15:53;5.05;;;3.42;;
39872;SDS011;63160;48.854;9.292;2022-10-19T15:18:21;4.65;;;4.13;;
39872;SDS011;63160;48.854;9.292;2022-10-19T15:21:14;3.10;;;2.80;;
39872;SDS011;63160;48.854;9.292;2022-10-19T15:23:44;5.07;;;3.53;;
39872;SDS011;63160;48.854;9.292;2022-10-19T15:28:51;3.50;;;3.20;;
39872;SDS011;63160;48.854;9.292;2022-10-19T15:31:22;4.30;;;3.80;;
39872;SDS011;63160;48.854;9.292;2022-10-19T15:33:51;5.33;;;3.23;;
39872;SDS011;63160;48.854;9.292;2022-10-19T15:36:20;5.22;;;3.50;;
39872;SDS011;63160;48.854;9.292;2022-10-19T15:41:43;5.53;;;4.07;;
39872;SDS011;63160;48.854;9.292;2022-10-19T15:44:29;5.10;;;3.60;;
39872;SDS011;63160;48.854;9.292;2022-10-19T15:52:14;6.88;;;4.05;;
39872;SDS011;63160;48.854;9.292;2022-10-19T15:54:48;4.63;;;4.10;;
39872;SDS011;63160;48.854;9.292;2022-10-19T15:59:57;4.57;;;3.85;;
39872;SDS011;63160;48.854;9.292;2022-10-19T16:02:25;6.03;;;4.63;;
39872;SDS011;63160;48.854;9.292;2022-10-19T16:04:52;6.90;;;4.70;;
39872;SDS011;63160;48.854;9.292;2022-10-19T16:07:24;5.55;;;4.70;;
39872;SDS011;63160;48.854;9.292;2022-10-19T16:09:52;6.65;;;4.88;;
39872;SDS011;63160;48.854;9.292;2022-10-19T16:12:20;5.88;;;5.30;;
39872;SDS011;63160;48.854;9.292;2022-10-19T16:14:47;5.75;;;4.30;;
39872;SDS011;63160;48.854;9.292;2022-10-19T16:17:14;9.30;;;5.03;;
39872;SDS011;63160;48.854;9.292;2022-10-19T16:19:41;7.20;;;5.35;;
39872;SDS011;63160;48.854;9.292;2022-10-19T16:22:08;7.35;;;5.22;;
39872;SDS011;63160;48.854;9.292;2022-10-19T16:24:35;7.28;;;4.18;;
39872;SDS011;63160;48.854;9.292;2022-10-19T16:27:01;7.90;;;5.32;;
39872;SDS011;63160;48.854;9.292;2022-10-19T16:29:28;7.18;;;5.93;;
39872;SDS011;63160;48.854;9.292;2022-10-19T16:31:54;8.70;;;5.60;;
39872;SDS011;63160;48.854;9.292;2022-10-19T16:34:21;6.15;;;5.55;;
39872;SDS011;63160;48.854;9.292;2022-10-19T16:36:48;9.50;;;6.43;;
39872;SDS011;63160;48.854;9.292;2022-10-19T16:39:15;8.07;;;5.80;;
39872;SDS011;63160;48.854;9.292;2022-10-19T16:41:42;7.95;;;6.63;;
39872;SDS011;63160;48.854;9.292;2022-10-19T16:44:09;8.55;;;6.97;;
39872;SDS011;63160;48.854;9.292;2022-10-19T16:46:37;7.97;;;6.47;;
39872;SDS011;63160;48.854;9.292;2022-10-19T16:49:04;7.35;;;6.57;;
39872;SDS011;63160;48.854;9.292;2022-10-19T16:51:40;9.35;;;6.10;;
39872;SDS011;63160;48.854;9.292;2022-10-19T16:54:09;6.80;;;6.10;;
39872;SDS011;63160;48.854;9.292;2022-10-19T16:56:41;8.18;;;6.55;;
39872;SDS011;63160;48.854;9.292;2022-10-19T16:59:12;10.52;;;6.45;;
39872;SDS011;63160;48.854;9.292;2022-10-19T17:01:40;7.25;;;6.50;;
39872;SDS011;63160;48.854;9.292;2022-10-19T17:04:07;7.15;;;6.35;;
39872;SDS011;63160;48.854;9.292;2022-10-19T17:06:34;8.32;;;6.32;;
39872;SDS011;63160;48.854;9.292;2022-10-19T17:09:01;7.63;;;6.93;;
39872;SDS011;63160;48.854;9.292;2022-10-19T17:11:48;8.07;;;7.22;;
39872;SDS011;63160;48.854;9.292;2022-10-19T17:14:15;9.27;;;7.47;;
39872;SDS011;63160;48.854;9.292;2022-10-19T17:16:41;9.23;;;8.32;;
39872;SDS011;63160;48.854;9.292;2022-10-19T17:19:08;13.70;;;8.95;;
39872;SDS011;63160;48.854;9.292;2022-10-19T17:21:36;11.02;;;9.23;;